Time,TemperatureF,DewpointF,PressureIn,WindDirection,WindDirectionDegrees,WindSpeedMPH,WindSpeedGustMPH,Humidity,HourlyPrecipIn,Conditions,Clouds,dailyrainin,SoftwareType,DateUTC
2013-02-07 00:00:00,43.6,40.0,30.12,SW,225,0.0,0.2,87,0.00,,,0.01,WUHU216HW,2013-02-07 08:00:00,
2013-02-07 00:05:00,43.6,40.0,30.13,SW,225,0.0,0.4,87,0.00,,,0.00,WUHU216HW,2013-02-07 08:05:00,
2013-02-07 00:10:00,43.6,40.0,30.13,SW,225,0.0,0.4,87,0.00,,,0.00,WUHU216HW,2013-02-07 08:10:00,
2013-02-07 00:15:00,43.6,40.0,30.14,WSW,248,0.4,0.7,87,0.00,,,0.00,WUHU216HW,2013-02-07 08:15:00,
2013-02-07 00:20:00,43.4,39.8,30.13,SSW,203,0.4,0.7,87,0.00,,,0.00,WUHU216HW,2013-02-07 08:20:00,
2013-02-07 00:25:00,43.4,39.8,30.13,SSW,203,0.4,0.4,87,0.00,,,0.00,WUHU216HW,2013-02-07 08:25:00,
2013-02-07 00:30:00,43.2,39.2,30.12,SSW,203,0.0,0.4,86,0.00,,,0.00,WUHU216HW,2013-02-07 08:30:00,
2013-02-07 00:36:00,43.0,39.1,30.13,SSW,203,0.4,0.4,86,0.00,,,0.00,WUHU216HW,2013-02-07 08:36:00,
2013-02-07 00:41:00,42.8,39.3,30.12,SSW,203,0.2,0.4,87,0.00,,,0.00,WUHU216HW,2013-02-07 08:41:00,
2013-02-07 00:46:00,42.7,39.1,30.11,SSW,203,0.4,0.7,87,0.00,,,0.00,WUHU216HW,2013-02-07 08:46:00,
2013-02-07 00:51:00,42.5,38.9,30.13,SW,225,0.2,0.7,87,0.00,,,0.00,WUHU216HW,2013-02-07 08:51:00,
2013-02-07 00:56:00,42.5,38.9,30.14,SW,225,0.4,0.7,87,0.00,,,0.00,WUHU216HW,2013-02-07 08:56:00,
2013-02-07 01:01:00,42.5,38.9,30.12,SW,225,0.2,0.7,87,0.00,,,0.00,WUHU216HW,2013-02-07 09:01:00,
2013-02-07 01:06:00,42.7,39.1,30.12,SSW,203,0.2,0.7,87,0.00,,,0.00,WUHU216HW,2013-02-07 09:06:00,
2013-02-07 01:11:00,42.7,39.1,30.12,SSW,203,0.4,0.7,87,0.00,,,0.00,WUHU216HW,2013-02-07 09:11:00,
2013-02-07 01:16:00,42.7,39.1,30.12,SW,225,0.4,0.4,87,0.00,,,0.00,WUHU216HW,2013-02-07 09:16:00,
2013-02-07 01:21:00,42.3,38.7,30.11,SW,225,0.4,0.7,87,0.00,,,0.00,WUHU216HW,2013-02-07 09:21:00,
2013-02-07 01:26:00,42.1,38.8,30.11,SW,225,0.4,0.7,88,0.00,,,0.00,WUHU216HW,2013-02-07 09:26:00,
2013-02-07 01:31:00,42.1,38.8,30.11,SW,225,0.4,0.7,88,0.00,,,0.00,WUHU216HW,2013-02-07 09:31:00,
2013-02-07 01:36:00,42.1,38.8,30.12,SW,225,0.4,0.7,88,0.00,,,0.00,WUHU216HW,2013-02-07 09:36:00,
2013-02-07 01:41:00,41.8,38.4,30.10,SW,225,0.4,0.7,88,0.00,,,0.00,WUHU216HW,2013-02-07 09:41:00,
2013-02-07 01:46:00,41.8,38.8,30.11,SW,225,0.9,0.9,89,0.00,,,0.00,WUHU216HW,2013-02-07 09:46:00,
2013-02-07 01:52:00,41.8,38.8,30.11,SW,225,0.7,0.9,89,0.00,,,0.00,WUHU216HW,2013-02-07 09:52:00,
2013-02-07 01:57:00,41.8,38.8,30.11,SW,225,0.4,0.9,89,0.00,,,0.00,WUHU216HW,2013-02-07 09:57:00,
2013-02-07 02:02:00,41.8,38.8,30.11,SW,225,0.4,0.7,89,0.00,,,0.00,WUHU216HW,2013-02-07 10:02:00,
2013-02-07 02:07:00,41.8,38.8,30.11,SW,225,0.4,0.4,89,0.00,,,0.00,WUHU216HW,2013-02-07 10:07:00,
2013-02-07 02:12:00,41.8,38.8,30.10,SW,225,0.4,0.4,89,0.00,,,0.00,WUHU216HW,2013-02-07 10:12:00,
2013-02-07 02:17:00,41.8,38.8,30.10,WSW,248,1.1,1.1,89,0.00,,,0.00,WUHU216HW,2013-02-07 10:17:00,
2013-02-07 02:22:00,41.8,38.8,30.10,WSW,248,1.1,1.1,89,0.00,,,0.00,WUHU216HW,2013-02-07 10:22:00,
2013-02-07 02:27:00,41.9,39.0,30.10,WSW,248,0.4,1.1,89,0.00,,,0.00,WUHU216HW,2013-02-07 10:27:00,
2013-02-07 02:32:00,41.9,39.0,30.11,WSW,248,1.1,1.1,89,0.00,,,0.00,WUHU216HW,2013-02-07 10:32:00,
2013-02-07 02:37:00,41.8,38.8,30.10,WSW,248,1.1,1.1,89,0.00,,,0.00,WUHU216HW,2013-02-07 10:37:00,
2013-02-07 02:42:00,41.6,38.6,30.10,WSW,248,0.9,1.1,89,0.00,,,0.00,WUHU216HW,2013-02-07 10:42:00,
2013-02-07 02:47:00,41.6,38.6,30.11,WSW,248,0.9,1.3,89,0.00,,,0.00,WUHU216HW,2013-02-07 10:47:00,
2013-02-07 02:52:00,41.8,38.8,30.10,WSW,248,1.1,1.3,89,0.00,,,0.00,WUHU216HW,2013-02-07 10:52:00,
2013-02-07 02:57:00,41.9,39.0,30.11,WSW,248,0.2,1.1,89,0.00,,,0.00,WUHU216HW,2013-02-07 10:57:00,
2013-02-07 03:02:00,42.1,39.2,30.10,WSW,248,0.4,1.1,89,0.00,,,0.00,WUHU216HW,2013-02-07 11:02:00,
2013-02-07 03:07:00,42.3,39.3,30.10,WSW,248,0.4,0.9,89,0.00,,,0.00,WUHU216HW,2013-02-07 11:07:00,
2013-02-07 03:13:00,42.3,39.3,30.11,WSW,248,0.4,0.7,89,0.00,,,0.00,WUHU216HW,2013-02-07 11:13:00,
2013-02-07 03:18:00,42.5,39.5,30.11,WSW,248,0.4,0.7,89,0.00,,,0.00,WUHU216HW,2013-02-07 11:18:00,
2013-02-07 03:23:00,42.5,39.5,30.10,WSW,248,0.7,0.7,89,0.00,,,0.00,WUHU216HW,2013-02-07 11:23:00,
2013-02-07 03:28:00,42.7,39.7,30.09,WSW,248,0.0,0.7,89,0.00,,,0.00,WUHU216HW,2013-02-07 11:28:00,
2013-02-07 03:33:00,42.7,39.7,30.09,WSW,248,0.4,0.4,89,0.00,,,0.00,WUHU216HW,2013-02-07 11:33:00,
2013-02-07 03:38:00,42.8,39.9,30.09,WSW,248,0.7,0.7,89,0.00,,,0.00,WUHU216HW,2013-02-07 11:38:00,
2013-02-07 03:43:00,42.8,39.5,30.09,WSW,248,0.0,0.9,88,0.00,,,0.00,WUHU216HW,2013-02-07 11:43:00,
2013-02-07 03:48:00,42.7,39.3,30.09,SW,225,0.2,0.9,88,0.00,,,0.00,WUHU216HW,2013-02-07 11:48:00,
2013-02-07 03:53:00,42.5,39.2,30.09,SW,225,0.4,0.4,88,0.00,,,0.00,WUHU216HW,2013-02-07 11:53:00,
2013-02-07 03:58:00,42.5,39.2,30.09,SW,225,0.4,0.4,88,0.00,,,0.00,WUHU216HW,2013-02-07 11:58:00,
2013-02-07 04:03:00,42.3,39.0,30.10,WSW,248,0.4,0.7,88,0.00,,,0.00,WUHU216HW,2013-02-07 12:03:00,
2013-02-07 04:08:00,42.3,39.0,30.09,WSW,248,0.7,0.7,88,0.00,,,0.00,WUHU216HW,2013-02-07 12:08:00,
2013-02-07 04:13:00,42.3,39.0,30.08,WSW,248,0.4,0.7,88,0.00,,,0.00,WUHU216HW,2013-02-07 12:13:00,
2013-02-07 04:18:00,42.1,38.8,30.09,WSW,248,1.1,1.1,88,0.00,,,0.00,WUHU216HW,2013-02-07 12:18:00,
2013-02-07 04:23:00,42.1,38.8,30.09,WSW,248,1.1,1.3,88,0.00,,,0.00,WUHU216HW,2013-02-07 12:23:00,
2013-02-07 04:28:00,41.9,38.4,30.10,WSW,248,1.1,1.3,87,0.00,,,0.00,WUHU216HW,2013-02-07 12:28:00,
2013-02-07 04:33:00,41.9,38.4,30.09,WSW,248,0.7,1.1,87,0.00,,,0.00,WUHU216HW,2013-02-07 12:33:00,
2013-02-07 04:39:00,41.9,38.4,30.10,WSW,248,1.1,1.6,87,0.00,,,0.00,WUHU216HW,2013-02-07 12:39:00,
2013-02-07 04:44:00,41.8,38.2,30.09,WSW,248,0.4,1.8,87,0.00,,,0.00,WUHU216HW,2013-02-07 12:44:00,
2013-02-07 04:49:00,41.8,38.2,30.09,WSW,248,1.1,1.8,87,0.00,,,0.00,WUHU216HW,2013-02-07 12:49:00,
2013-02-07 04:54:00,41.8,38.2,30.10,WSW,248,0.9,1.1,87,0.00,,,0.00,WUHU216HW,2013-02-07 12:54:00,
2013-02-07 04:59:00,41.8,38.2,30.09,WSW,248,0.7,1.1,87,0.00,,,0.00,WUHU216HW,2013-02-07 12:59:00,
2013-02-07 05:04:00,41.8,38.2,30.11,WSW,248,1.3,1.3,87,0.00,,,0.00,WUHU216HW,2013-02-07 13:04:00,
2013-02-07 05:09:00,42.1,38.5,30.09,WSW,248,1.1,1.8,87,0.00,,,0.00,WUHU216HW,2013-02-07 13:09:00,
2013-02-07 05:14:00,42.1,38.5,30.09,WSW,248,0.7,1.8,87,0.00,,,0.00,WUHU216HW,2013-02-07 13:14:00,
2013-02-07 05:19:00,42.3,38.7,30.10,WSW,248,0.2,1.3,87,0.00,,,0.00,WUHU216HW,2013-02-07 13:19:00,
2013-02-07 05:24:00,42.5,38.9,30.09,WSW,248,0.4,0.9,87,0.00,,,0.00,WUHU216HW,2013-02-07 13:24:00,
2013-02-07 05:29:00,42.5,38.9,30.08,WSW,248,0.2,0.9,87,0.00,,,0.00,WUHU216HW,2013-02-07 13:29:00,
2013-02-07 05:34:00,42.5,38.9,30.10,WSW,248,0.4,0.7,87,0.00,,,0.00,WUHU216HW,2013-02-07 13:34:00,
2013-02-07 05:40:00,42.5,38.9,30.10,WSW,248,0.4,1.1,87,0.00,,,0.00,WUHU216HW,2013-02-07 13:40:00,
2013-02-07 05:45:00,42.7,39.1,30.09,WSW,248,0.7,1.1,87,0.00,,,0.00,WUHU216HW,2013-02-07 13:45:00,
2013-02-07 05:50:00,42.5,38.9,30.09,SW,225,0.4,0.7,87,0.00,,,0.00,WUHU216HW,2013-02-07 13:50:00,
2013-02-07 05:55:00,42.5,38.9,30.09,SW,225,0.7,0.9,87,0.00,,,0.00,WUHU216HW,2013-02-07 13:55:00,
2013-02-07 06:00:00,42.3,38.3,30.09,SW,225,0.7,1.1,86,0.00,,,0.00,WUHU216HW,2013-02-07 14:00:00,
2013-02-07 06:05:00,42.1,38.2,30.10,SW,225,0.9,1.1,86,0.00,,,0.00,WUHU216HW,2013-02-07 14:05:00,
2013-02-07 06:10:00,42.1,38.2,30.09,SW,225,0.9,0.9,86,0.00,,,0.00,WUHU216HW,2013-02-07 14:10:00,
2013-02-07 06:15:00,42.1,38.5,30.09,SW,225,0.7,1.1,87,0.00,,,0.00,WUHU216HW,2013-02-07 14:15:00,
2013-02-07 06:20:00,41.9,38.4,30.09,SW,225,0.9,1.1,87,0.00,,,0.00,WUHU216HW,2013-02-07 14:20:00,
2013-02-07 06:25:00,41.9,38.4,30.09,SW,225,0.9,0.9,87,0.00,,,0.00,WUHU216HW,2013-02-07 14:25:00,
2013-02-07 06:30:00,41.9,38.4,30.09,SW,225,0.7,0.9,87,0.00,,,0.00,WUHU216HW,2013-02-07 14:30:00,
2013-02-07 06:35:00,41.8,38.2,30.10,SW,225,1.1,1.1,87,0.00,,,0.00,WUHU216HW,2013-02-07 14:35:00,
2013-02-07 06:40:00,41.8,38.2,30.09,SW,225,0.9,1.1,87,0.00,,,0.00,WUHU216HW,2013-02-07 14:40:00,
2013-02-07 06:46:00,41.8,38.2,30.10,SW,225,0.7,1.1,87,0.00,,,0.00,WUHU216HW,2013-02-07 14:46:00,
2013-02-07 06:51:00,41.6,38.0,30.11,SW,225,0.7,1.1,87,0.00,,,0.00,WUHU216HW,2013-02-07 14:51:00,
2013-02-07 06:56:00,41.6,38.0,30.09,SW,225,0.4,1.1,87,0.00,,,0.00,WUHU216HW,2013-02-07 14:56:00,
2013-02-07 07:01:00,41.6,38.0,30.10,SW,225,0.4,0.9,87,0.00,,,0.00,WUHU216HW,2013-02-07 15:01:00,
2013-02-07 07:06:00,41.4,37.8,30.10,SW,225,0.4,0.7,87,0.00,,,0.00,WUHU216HW,2013-02-07 15:06:00,
2013-02-07 07:11:00,41.4,37.8,30.11,SW,225,0.7,0.9,87,0.00,,,0.00,WUHU216HW,2013-02-07 15:11:00,
2013-02-07 07:16:00,41.4,37.8,30.10,SW,225,0.9,1.1,87,0.00,,,0.00,WUHU216HW,2013-02-07 15:16:00,
2013-02-07 07:21:00,41.4,37.8,30.10,SW,225,0.7,1.1,87,0.00,,,0.00,WUHU216HW,2013-02-07 15:21:00,
2013-02-07 07:26:00,41.4,37.8,30.11,SW,225,1.1,1.1,87,0.00,,,0.00,WUHU216HW,2013-02-07 15:26:00,
2013-02-07 07:31:00,41.6,38.0,30.11,SW,225,0.4,1.1,87,0.00,,,0.00,WUHU216HW,2013-02-07 15:31:00,
2013-02-07 07:36:00,41.9,38.4,30.11,SW,225,0.4,0.9,87,0.00,,,0.00,WUHU216HW,2013-02-07 15:36:00,
2013-02-07 07:41:00,42.1,38.5,30.10,SW,225,0.4,0.9,87,0.00,,,0.00,WUHU216HW,2013-02-07 15:41:00,
2013-02-07 07:46:00,42.5,38.9,30.11,SW,225,0.4,0.9,87,0.00,,,0.00,WUHU216HW,2013-02-07 15:46:00,
2013-02-07 07:51:00,42.5,38.5,30.11,SW,225,0.4,1.1,86,0.00,,,0.00,WUHU216HW,2013-02-07 15:51:00,
2013-02-07 07:56:00,42.8,38.9,30.12,SW,225,0.4,1.1,86,0.00,,,0.00,WUHU216HW,2013-02-07 15:56:00,
2013-02-07 08:01:00,42.8,38.9,30.11,SW,225,0.4,0.9,86,0.00,,,0.00,WUHU216HW,2013-02-07 16:01:00,
2013-02-07 08:06:00,43.2,39.0,30.12,SW,225,0.7,0.9,85,0.00,,,0.00,WUHU216HW,2013-02-07 16:06:00,
2013-02-07 08:11:00,43.2,39.2,30.11,SW,225,0.7,0.9,86,0.00,,,0.00,WUHU216HW,2013-02-07 16:11:00,
2013-02-07 08:17:00,43.6,39.6,30.12,WSW,248,0.9,0.9,86,0.00,,,0.00,WUHU216HW,2013-02-07 16:17:00,
2013-02-07 08:22:00,43.7,39.5,30.11,WSW,248,0.2,0.9,85,0.00,,,0.00,WUHU216HW,2013-02-07 16:22:00,
2013-02-07 08:27:00,43.9,39.7,30.11,West,270,1.1,1.1,85,0.00,,,0.00,WUHU216HW,2013-02-07 16:27:00,
2013-02-07 08:32:00,44.3,40.1,30.11,WSW,248,0.7,1.3,85,0.00,,,0.00,WUHU216HW,2013-02-07 16:32:00,
2013-02-07 08:37:00,44.6,40.4,30.11,West,270,1.1,1.3,85,0.00,,,0.00,WUHU216HW,2013-02-07 16:37:00,
2013-02-07 08:42:00,45.0,40.8,30.13,WSW,248,0.4,1.3,85,0.00,,,0.00,WUHU216HW,2013-02-07 16:42:00,
2013-02-07 08:47:00,45.2,40.7,30.12,WSW,248,1.1,1.1,84,0.00,,,0.00,WUHU216HW,2013-02-07 16:47:00,
2013-02-07 08:52:00,45.5,40.7,30.11,West,270,0.9,1.1,83,0.00,,,0.00,WUHU216HW,2013-02-07 16:52:00,
2013-02-07 08:57:00,45.9,40.8,30.12,West,270,0.0,1.1,82,0.00,,,0.00,WUHU216HW,2013-02-07 16:57:00,
2013-02-07 09:02:00,46.1,41.2,30.11,West,270,0.4,0.7,83,0.00,,,0.00,WUHU216HW,2013-02-07 17:02:00,
2013-02-07 09:07:00,46.4,41.0,30.11,WNW,293,0.4,0.9,81,0.00,,,0.00,WUHU216HW,2013-02-07 17:07:00,
2013-02-07 09:12:00,46.8,41.3,30.12,WNW,293,0.4,0.9,81,0.00,,,0.00,WUHU216HW,2013-02-07 17:12:00,
2013-02-07 09:17:00,47.2,41.3,30.10,SW,225,0.0,0.7,80,0.00,,,0.00,WUHU216HW,2013-02-07 17:17:00,
2013-02-07 09:22:00,47.5,41.7,30.12,WSW,248,0.4,0.9,80,0.00,,,0.00,WUHU216HW,2013-02-07 17:22:00,
2013-02-07 09:28:00,47.9,41.7,30.11,SE,135,0.9,1.1,79,0.00,,,0.00,WUHU216HW,2013-02-07 17:28:00,
2013-02-07 09:33:00,48.2,41.6,30.11,WSW,248,0.2,0.9,78,0.00,,,0.00,WUHU216HW,2013-02-07 17:33:00,
2013-02-07 09:38:00,48.6,41.3,30.12,NNW,338,0.4,1.1,76,0.00,,,0.00,WUHU216HW,2013-02-07 17:38:00,
2013-02-07 09:43:00,49.0,41.3,30.10,SE,135,0.2,1.3,75,0.00,,,0.00,WUHU216HW,2013-02-07 17:43:00,
2013-02-07 09:48:00,49.3,41.7,30.11,WSW,248,0.4,1.3,75,0.00,,,0.00,WUHU216HW,2013-02-07 17:48:00,
2013-02-07 09:53:00,49.5,40.9,30.11,West,270,0.9,1.3,72,0.00,,,0.00,WUHU216HW,2013-02-07 17:53:00,
2013-02-07 09:58:00,49.9,41.2,30.11,West,270,0.4,1.3,72,0.00,,,0.00,WUHU216HW,2013-02-07 17:58:00,
2013-02-07 10:03:00,50.0,41.7,30.11,WSW,248,0.0,2.0,73,0.00,,,0.00,WUHU216HW,2013-02-07 18:03:00,
2013-02-07 10:08:00,50.2,40.5,30.11,West,270,1.1,2.0,69,0.00,,,0.00,WUHU216HW,2013-02-07 18:08:00,
2013-02-07 10:13:00,50.4,41.0,30.11,West,270,0.2,1.1,70,0.00,,,0.00,WUHU216HW,2013-02-07 18:13:00,
2013-02-07 10:18:00,50.6,41.2,30.10,NW,315,0.0,1.1,70,0.00,,,0.00,WUHU216HW,2013-02-07 18:18:00,
2013-02-07 10:23:00,50.8,41.1,30.10,ESE,113,0.0,0.7,69,0.00,,,0.00,WUHU216HW,2013-02-07 18:23:00,
2013-02-07 10:28:00,51.3,41.1,30.11,SW,225,0.2,0.7,68,0.00,,,0.00,WUHU216HW,2013-02-07 18:28:00,
2013-02-07 10:33:00,51.5,41.3,30.10,WNW,293,0.0,0.9,68,0.00,,,0.00,WUHU216HW,2013-02-07 18:33:00,
2013-02-07 10:39:00,51.5,41.3,30.11,SW,225,1.1,1.1,68,0.00,,,0.00,WUHU216HW,2013-02-07 18:39:00,
2013-02-07 10:44:00,51.7,41.5,30.12,NNW,338,0.0,2.7,68,0.00,,,0.00,WUHU216HW,2013-02-07 18:44:00,
2013-02-07 10:49:00,51.7,41.5,30.10,West,270,0.2,2.7,68,0.00,,,0.00,WUHU216HW,2013-02-07 18:49:00,
2013-02-07 10:54:00,52.0,42.7,30.10,ESE,113,1.1,1.1,70,0.00,,,0.00,WUHU216HW,2013-02-07 18:54:00,
2013-02-07 10:59:00,52.4,42.6,30.11,North,0,0.7,1.1,69,0.00,,,0.00,WUHU216HW,2013-02-07 18:59:00,
2013-02-07 11:04:00,52.7,42.9,30.10,West,270,0.4,2.0,69,0.00,,,0.00,WUHU216HW,2013-02-07 19:04:00,
2013-02-07 11:09:00,52.9,43.0,30.10,NNW,338,0.0,2.0,69,0.00,,,0.00,WUHU216HW,2013-02-07 19:09:00,
2013-02-07 11:14:00,53.1,42.9,30.10,NW,315,0.7,1.6,68,0.00,,,0.00,WUHU216HW,2013-02-07 19:14:00,
2013-02-07 11:19:00,53.1,43.2,30.10,ESE,113,0.4,0.9,69,0.00,,,0.00,WUHU216HW,2013-02-07 19:19:00,
2013-02-07 11:24:00,53.3,43.4,30.10,East,90,0.7,0.9,69,0.00,,,0.00,WUHU216HW,2013-02-07 19:24:00,
2013-02-07 11:29:00,53.5,43.9,30.10,ESE,113,0.9,0.9,70,0.00,,,0.00,WUHU216HW,2013-02-07 19:29:00,
2013-02-07 11:34:00,53.6,44.1,30.09,WSW,248,0.0,0.9,70,0.00,,,0.00,WUHU216HW,2013-02-07 19:34:00,
2013-02-07 11:39:00,53.6,44.5,30.09,NW,315,0.7,1.8,71,0.00,,,0.00,WUHU216HW,2013-02-07 19:39:00,
2013-02-07 11:44:00,53.6,44.5,30.09,SE,135,0.4,1.8,71,0.00,,,0.00,WUHU216HW,2013-02-07 19:44:00,
2013-02-07 11:50:00,53.8,45.0,30.09,West,270,1.3,1.8,72,0.00,,,0.00,WUHU216HW,2013-02-07 19:50:00,
2013-02-07 11:55:00,53.8,44.7,30.09,WSW,248,1.6,2.5,71,0.00,,,0.00,WUHU216HW,2013-02-07 19:55:00,
2013-02-07 12:00:00,53.8,45.0,30.08,ENE,68,1.3,2.5,72,0.00,,,0.00,WUHU216HW,2013-02-07 20:00:00,
2013-02-07 12:05:00,54.0,45.6,30.08,SE,135,0.4,1.8,73,0.00,,,0.00,WUHU216HW,2013-02-07 20:05:00,
2013-02-07 12:10:00,54.0,45.2,30.07,WSW,248,1.3,1.3,72,0.00,,,0.00,WUHU216HW,2013-02-07 20:10:00,
2013-02-07 12:15:00,54.0,45.2,30.08,North,0,0.9,2.2,72,0.00,,,0.00,WUHU216HW,2013-02-07 20:15:00,
2013-02-07 12:20:00,53.8,45.4,30.07,West,270,0.4,2.2,73,0.00,,,0.00,WUHU216HW,2013-02-07 20:20:00,
2013-02-07 12:25:00,53.8,45.4,30.07,NE,45,0.0,0.4,73,0.00,,,0.00,WUHU216HW,2013-02-07 20:25:00,
2013-02-07 12:30:00,53.6,45.2,30.07,NE,45,0.2,1.1,73,0.00,,,0.00,WUHU216HW,2013-02-07 20:30:00,
2013-02-07 12:35:00,53.6,45.2,30.07,SW,225,0.4,2.2,73,0.00,,,0.00,WUHU216HW,2013-02-07 20:35:00,
2013-02-07 12:40:00,53.6,45.5,30.06,East,90,0.9,2.2,74,0.00,,,0.00,WUHU216HW,2013-02-07 20:40:00,
2013-02-07 12:45:00,53.8,45.7,30.07,North,0,0.9,1.6,74,0.00,,,0.00,WUHU216HW,2013-02-07 20:45:00,
2013-02-07 12:51:00,54.0,45.9,30.06,North,0,0.4,1.1,74,0.00,,,0.00,WUHU216HW,2013-02-07 20:51:00,
2013-02-07 12:56:00,54.0,45.6,30.06,ESE,113,1.3,1.3,73,0.00,,,0.00,WUHU216HW,2013-02-07 20:56:00,
2013-02-07 13:01:00,54.2,46.1,30.06,NNW,338,1.1,1.8,74,0.00,,,0.00,WUHU216HW,2013-02-07 21:01:00,
2013-02-07 13:06:00,54.4,45.9,30.05,WNW,293,0.4,2.5,73,0.00,,,0.00,WUHU216HW,2013-02-07 21:06:00,
2013-02-07 13:11:00,54.4,45.6,30.05,NNE,23,1.1,2.5,72,0.00,,,0.00,WUHU216HW,2013-02-07 21:11:00,
2013-02-07 13:16:00,54.2,45.4,30.04,SE,135,0.9,2.5,72,0.00,,,0.00,WUHU216HW,2013-02-07 21:16:00,
2013-02-07 13:21:00,54.2,45.7,30.05,North,0,1.8,2.5,73,0.00,,,0.00,WUHU216HW,2013-02-07 21:21:00,
2013-02-07 13:26:00,54.4,45.9,30.05,NNE,23,3.8,4.3,73,0.00,,,0.00,WUHU216HW,2013-02-07 21:26:00,
2013-02-07 13:31:00,54.7,46.3,30.05,SE,135,0.4,4.3,73,0.00,,,0.00,WUHU216HW,2013-02-07 21:31:00,
2013-02-07 13:36:00,55.1,46.6,30.04,North,0,1.3,4.3,73,0.00,,,0.00,WUHU216HW,2013-02-07 21:36:00,
2013-02-07 13:41:00,55.1,45.9,30.05,SSW,203,1.1,2.2,71,0.00,,,0.00,WUHU216HW,2013-02-07 21:41:00,
2013-02-07 13:46:00,54.9,46.1,30.05,NNE,23,0.4,2.5,72,0.00,,,0.00,WUHU216HW,2013-02-07 21:46:00,
2013-02-07 13:51:00,54.5,45.7,30.04,East,90,0.4,2.5,72,0.00,,,0.00,WUHU216HW,2013-02-07 21:51:00,
2013-02-07 13:56:00,54.0,44.5,30.05,WNW,293,1.1,1.6,70,0.00,,,0.00,WUHU216HW,2013-02-07 21:56:00,
2013-02-07 14:01:00,53.5,44.3,30.05,NNE,23,1.1,2.0,71,0.00,,,0.00,WUHU216HW,2013-02-07 22:01:00,
2013-02-07 14:06:00,53.1,44.3,30.05,North,0,1.8,2.0,72,0.00,,,0.00,WUHU216HW,2013-02-07 22:06:00,
2013-02-07 14:12:00,53.1,44.0,30.06,East,90,2.0,2.7,71,0.00,,,0.00,WUHU216HW,2013-02-07 22:12:00,
2013-02-07 14:17:00,53.3,42.2,30.05,ESE,113,2.5,4.7,66,0.00,,,0.00,WUHU216HW,2013-02-07 22:17:00,
2013-02-07 14:22:00,53.1,41.6,30.05,NNW,338,1.8,8.5,65,0.00,,,0.00,WUHU216HW,2013-02-07 22:22:00,
2013-02-07 14:27:00,53.3,41.4,30.04,West,270,0.2,3.8,64,0.00,,,0.00,WUHU216HW,2013-02-07 22:27:00,
2013-02-07 14:32:00,53.5,41.1,30.04,SE,135,0.2,3.1,63,0.00,,,0.00,WUHU216HW,2013-02-07 22:32:00,
2013-02-07 14:37:00,53.1,40.8,30.04,SW,225,1.1,3.1,63,0.00,,,0.00,WUHU216HW,2013-02-07 22:37:00,
2013-02-07 14:42:00,52.9,41.1,30.04,West,270,0.4,2.5,64,0.00,,,0.00,WUHU216HW,2013-02-07 22:42:00,
2013-02-07 14:47:00,52.7,40.4,30.04,SSW,203,0.9,1.1,63,0.00,,,0.00,WUHU216HW,2013-02-07 22:47:00,
2013-02-07 14:52:00,52.6,40.7,30.04,North,0,1.1,1.8,64,0.00,,,0.00,WUHU216HW,2013-02-07 22:52:00,
2013-02-07 14:57:00,52.6,40.7,30.03,North,0,0.4,1.8,64,0.00,,,0.00,WUHU216HW,2013-02-07 22:57:00,
2013-02-07 15:02:00,52.2,40.8,30.04,WNW,293,0.4,2.5,65,0.00,,,0.00,WUHU216HW,2013-02-07 23:02:00,
2013-02-07 15:07:00,51.8,40.9,30.03,NW,315,0.9,2.5,66,0.00,,,0.00,WUHU216HW,2013-02-07 23:07:00,
2013-02-07 15:12:00,51.5,40.1,30.04,SSW,203,0.2,2.2,65,0.00,,,0.00,WUHU216HW,2013-02-07 23:12:00,
2013-02-07 15:17:00,51.3,40.3,30.03,SE,135,0.0,1.3,66,0.00,,,0.00,WUHU216HW,2013-02-07 23:17:00,
2013-02-07 15:23:00,51.1,40.5,30.04,West,270,0.2,1.1,67,0.00,,,0.00,WUHU216HW,2013-02-07 23:23:00,
2013-02-07 15:28:00,51.1,39.7,30.04,NE,45,1.1,1.1,65,0.00,,,0.00,WUHU216HW,2013-02-07 23:28:00,
2013-02-07 15:33:00,50.9,40.0,30.04,ENE,68,0.7,2.0,66,0.00,,,0.00,WUHU216HW,2013-02-07 23:33:00,
2013-02-07 15:38:00,50.8,40.2,30.04,North,0,0.4,2.0,67,0.00,,,0.00,WUHU216HW,2013-02-07 23:38:00,
2013-02-07 15:43:00,50.8,40.6,30.03,NW,315,0.4,1.8,68,0.00,,,0.00,WUHU216HW,2013-02-07 23:43:00,
2013-02-07 15:48:00,50.8,40.6,30.03,WSW,248,0.9,2.0,68,0.00,,,0.00,WUHU216HW,2013-02-07 23:48:00,
2013-02-07 15:53:00,50.8,41.4,30.04,ESE,113,0.7,2.0,70,0.00,,,0.00,WUHU216HW,2013-02-07 23:53:00,
2013-02-07 15:58:00,50.8,41.1,30.03,NE,45,0.4,1.1,69,0.00,,,0.00,WUHU216HW,2013-02-07 23:58:00,
2013-02-07 16:03:00,50.4,41.0,30.04,North,0,0.4,3.1,70,0.00,,,0.00,WUHU216HW,2013-02-08 00:03:00,
2013-02-07 16:08:00,50.2,41.2,30.04,NNW,338,0.4,3.1,71,0.00,,,0.00,WUHU216HW,2013-02-08 00:08:00,
2013-02-07 16:13:00,50.0,41.1,30.04,ESE,113,0.0,1.1,71,0.00,,,0.00,WUHU216HW,2013-02-08 00:13:00,
2013-02-07 16:18:00,50.0,41.1,30.03,NW,315,0.9,1.1,71,0.00,,,0.00,WUHU216HW,2013-02-08 00:18:00,
2013-02-07 16:23:00,49.9,41.2,30.03,NE,45,0.2,1.1,72,0.00,,,0.00,WUHU216HW,2013-02-08 00:23:00,
2013-02-07 16:28:00,49.7,41.1,30.03,NNE,23,0.2,0.9,72,0.00,,,0.00,WUHU216HW,2013-02-08 00:28:00,
2013-02-07 16:33:00,49.7,41.1,30.04,North,0,1.1,1.1,72,0.00,,,0.00,WUHU216HW,2013-02-08 00:33:00,
2013-02-07 16:38:00,49.7,41.3,30.04,WSW,248,0.0,1.1,73,0.00,,,0.00,WUHU216HW,2013-02-08 00:38:00,
2013-02-07 16:44:00,49.3,41.0,30.04,NW,315,0.0,0.4,73,0.00,,,0.00,WUHU216HW,2013-02-08 00:44:00,
2013-02-07 16:49:00,49.3,41.3,30.04,South,180,0.7,0.7,74,0.00,,,0.00,WUHU216HW,2013-02-08 00:49:00,
2013-02-07 16:54:00,49.3,41.3,30.03,SW,225,0.4,0.7,74,0.00,,,0.00,WUHU216HW,2013-02-08 00:54:00,
2013-02-07 16:59:00,49.3,41.7,30.04,ESE,113,0.2,0.9,75,0.00,,,0.00,WUHU216HW,2013-02-08 00:59:00,
2013-02-07 17:04:00,49.3,41.7,30.03,NE,45,1.3,1.3,75,0.00,,,0.00,WUHU216HW,2013-02-08 01:04:00,
2013-02-07 17:09:00,49.1,41.9,30.04,East,90,0.4,1.3,76,0.00,,,0.00,WUHU216HW,2013-02-08 01:09:00,
2013-02-07 17:14:00,49.0,41.7,30.03,SE,135,0.2,0.7,76,0.00,,,0.00,WUHU216HW,2013-02-08 01:14:00,
2013-02-07 17:19:00,49.0,41.7,30.04,SSW,203,0.9,1.1,76,0.00,,,0.00,WUHU216HW,2013-02-08 01:19:00,
2013-02-07 17:24:00,48.8,41.9,30.03,SSW,203,0.4,1.1,77,0.00,,,0.00,WUHU216HW,2013-02-08 01:24:00,
2013-02-07 17:29:00,48.6,41.7,30.04,SSE,158,0.4,0.4,77,0.00,,,0.00,WUHU216HW,2013-02-08 01:29:00,
2013-02-07 17:35:00,48.4,41.8,30.03,WSW,248,0.0,0.7,78,0.00,,,0.00,WUHU216HW,2013-02-08 01:35:00,
2013-02-07 17:40:00,48.1,41.5,30.03,SE,135,0.4,0.7,78,0.00,,,0.00,WUHU216HW,2013-02-08 01:40:00,
2013-02-07 17:45:00,47.9,41.3,30.03,WSW,248,0.0,0.9,78,0.00,,,0.00,WUHU216HW,2013-02-08 01:45:00,
2013-02-07 17:50:00,47.9,41.3,30.04,SSW,203,0.0,0.9,78,0.00,,,0.00,WUHU216HW,2013-02-08 01:50:00,
2013-02-07 17:55:00,47.5,41.0,30.04,SW,225,0.4,0.4,78,0.00,,,0.00,WUHU216HW,2013-02-08 01:55:00,
2013-02-07 18:00:00,47.5,41.0,30.04,SSE,158,0.0,0.4,78,0.00,,,0.00,WUHU216HW,2013-02-08 02:00:00,
2013-02-07 18:05:00,47.3,40.8,30.04,SSE,158,0.4,0.7,78,0.00,,,0.00,WUHU216HW,2013-02-08 02:05:00,
2013-02-07 18:10:00,47.2,40.7,30.03,South,180,0.2,0.7,78,0.00,,,0.00,WUHU216HW,2013-02-08 02:10:00,
2013-02-07 18:15:00,47.0,40.5,30.04,SSE,158,0.2,0.7,78,0.00,,,0.00,WUHU216HW,2013-02-08 02:15:00,
2013-02-07 18:20:00,46.8,40.3,30.04,South,180,0.4,0.9,78,0.00,,,0.00,WUHU216HW,2013-02-08 02:20:00,
2013-02-07 18:25:00,46.6,40.1,30.03,South,180,0.4,1.1,78,0.00,,,0.00,WUHU216HW,2013-02-08 02:25:00,
2013-02-07 18:30:00,46.6,40.1,30.03,SSW,203,0.0,1.1,78,0.00,,,0.00,WUHU216HW,2013-02-08 02:30:00,
2013-02-07 18:35:00,46.4,40.0,30.03,SW,225,0.2,0.4,78,0.00,,,0.00,WUHU216HW,2013-02-08 02:35:00,
2013-02-07 18:41:00,46.4,40.0,30.03,SSW,203,0.4,0.7,78,0.00,,,0.00,WUHU216HW,2013-02-08 02:41:00,
2013-02-07 18:46:00,46.4,40.3,30.04,SSW,203,0.4,0.7,79,0.00,,,0.00,WUHU216HW,2013-02-08 02:46:00,
2013-02-07 18:51:00,46.4,40.3,30.02,SSW,203,0.4,0.4,79,0.00,,,0.00,WUHU216HW,2013-02-08 02:51:00,
2013-02-07 18:56:00,46.3,40.1,30.03,SSW,203,0.2,0.4,79,0.00,,,0.00,WUHU216HW,2013-02-08 02:56:00,
2013-02-07 19:01:00,46.1,40.0,30.03,SSW,203,0.0,0.4,79,0.00,,,0.00,WUHU216HW,2013-02-08 03:01:00,
2013-02-07 19:06:00,46.1,40.0,30.03,SE,135,0.4,0.4,79,0.00,,,0.00,WUHU216HW,2013-02-08 03:06:00,
2013-02-07 19:11:00,45.9,39.8,30.03,SSW,203,0.0,0.4,79,0.00,,,0.00,WUHU216HW,2013-02-08 03:11:00,
2013-02-07 19:16:00,45.9,39.8,30.02,SW,225,0.0,0.4,79,0.00,,,0.00,WUHU216HW,2013-02-08 03:16:00,
2013-02-07 19:21:00,45.9,40.1,30.03,SSW,203,0.2,0.9,80,0.00,,,0.00,WUHU216HW,2013-02-08 03:21:00,
2013-02-07 19:26:00,45.9,40.1,30.02,WSW,248,0.2,0.9,80,0.00,,,0.00,WUHU216HW,2013-02-08 03:26:00,
2013-02-07 19:31:00,46.1,40.3,30.02,SW,225,0.0,0.4,80,0.00,,,0.00,WUHU216HW,2013-02-08 03:31:00,
2013-02-07 19:36:00,46.1,40.3,30.02,SW,225,0.0,0.2,80,0.00,,,0.00,WUHU216HW,2013-02-08 03:36:00,
2013-02-07 19:41:00,46.1,40.3,30.02,SSE,158,0.0,0.4,80,0.00,,,0.00,WUHU216HW,2013-02-08 03:41:00,
2013-02-07 19:47:00,46.1,40.3,30.02,SSW,203,0.0,0.2,80,0.00,,,0.00,WUHU216HW,2013-02-08 03:47:00,
2013-02-07 19:52:00,46.1,40.6,30.02,SSW,203,0.4,0.4,81,0.00,,,0.00,WUHU216HW,2013-02-08 03:52:00,
2013-02-07 19:57:00,46.1,40.6,30.01,South,180,0.0,0.4,81,0.00,,,0.00,WUHU216HW,2013-02-08 03:57:00,
2013-02-07 20:02:00,46.1,40.6,30.01,South,180,0.0,0.4,81,0.00,,,0.00,WUHU216HW,2013-02-08 04:02:00,
2013-02-07 20:07:00,45.9,40.1,30.03,South,180,0.2,0.4,80,0.00,,,0.00,WUHU216HW,2013-02-08 04:07:00,
2013-02-07 20:12:00,45.9,40.1,30.01,South,180,0.4,0.7,80,0.00,,,0.00,WUHU216HW,2013-02-08 04:12:00,
2013-02-07 20:17:00,45.7,40.0,30.01,South,180,0.4,0.7,80,0.00,,,0.00,WUHU216HW,2013-02-08 04:17:00,
2013-02-07 20:22:00,45.7,40.0,30.01,South,180,0.0,0.4,80,0.00,,,0.00,WUHU216HW,2013-02-08 04:22:00,
2013-02-07 20:27:00,45.5,39.8,30.00,SSW,203,0.4,0.4,80,0.00,,,0.00,WUHU216HW,2013-02-08 04:27:00,
2013-02-07 20:32:00,45.4,39.6,30.00,SSW,203,0.7,0.7,80,0.00,,,0.00,WUHU216HW,2013-02-08 04:32:00,
2013-02-07 20:37:00,45.4,39.6,30.00,SSW,203,0.4,0.7,80,0.00,,,0.00,WUHU216HW,2013-02-08 04:37:00,
2013-02-07 20:42:00,45.2,39.4,30.01,SSW,203,0.7,0.7,80,0.00,,,0.00,WUHU216HW,2013-02-08 04:42:00,
2013-02-07 20:47:00,45.2,39.7,30.01,SSW,203,0.0,0.7,81,0.00,,,0.00,WUHU216HW,2013-02-08 04:47:00,
2013-02-07 20:52:00,45.0,39.5,30.01,SSW,203,0.4,0.4,81,0.00,,,0.00,WUHU216HW,2013-02-08 04:52:00,
2013-02-07 20:58:00,45.0,39.5,30.01,SSW,203,0.4,0.4,81,0.00,,,0.00,WUHU216HW,2013-02-08 04:58:00,
2013-02-07 21:00:00,45.0,39.5,30.01,SSW,203,0.2,0.4,81,0.00,,,0.00,WUHU216HW,2013-02-08 05:00:00,
2013-02-07 21:01:00,45.0,39.5,30.01,SSW,203,0.4,0.4,81,0.00,,,0.00,WUHU216HW,2013-02-08 05:01:00,
2013-02-07 21:06:00,44.8,39.3,30.01,SSW,203,0.9,0.9,81,0.00,,,0.00,WUHU216HW,2013-02-08 05:06:00,
2013-02-07 21:11:00,44.6,39.2,30.01,SSW,203,0.4,0.9,81,0.00,,,0.00,WUHU216HW,2013-02-08 05:11:00,
2013-02-07 21:16:00,44.6,39.2,30.00,SSW,203,0.4,0.4,81,0.00,,,0.00,WUHU216HW,2013-02-08 05:16:00,
2013-02-07 21:21:00,44.5,39.0,30.00,SSW,203,0.0,0.4,81,0.00,,,0.00,WUHU216HW,2013-02-08 05:21:00,
2013-02-07 21:26:00,44.3,38.8,30.00,SSW,203,0.4,0.4,81,0.00,,,0.00,WUHU216HW,2013-02-08 05:26:00,
2013-02-07 21:31:00,44.3,39.2,29.99,SSW,203,0.4,0.4,82,0.00,,,0.00,WUHU216HW,2013-02-08 05:31:00,
2013-02-07 21:36:00,44.1,39.0,29.99,SW,225,0.4,0.4,82,0.00,,,0.00,WUHU216HW,2013-02-08 05:36:00,
2013-02-07 21:41:00,43.9,38.8,29.99,SSW,203,0.0,0.7,82,0.00,,,0.00,WUHU216HW,2013-02-08 05:41:00,
2013-02-07 21:47:00,43.9,39.1,29.99,SSW,203,0.2,0.7,83,0.00,,,0.00,WUHU216HW,2013-02-08 05:47:00,
2013-02-07 21:52:00,43.7,38.9,29.99,SW,225,0.4,0.4,83,0.00,,,0.00,WUHU216HW,2013-02-08 05:52:00,
2013-02-07 21:57:00,43.6,38.7,29.99,SW,225,0.0,0.4,83,0.00,,,0.00,WUHU216HW,2013-02-08 05:57:00,
2013-02-07 22:02:00,43.6,38.7,29.99,SW,225,0.0,0.2,83,0.00,,,0.00,WUHU216HW,2013-02-08 06:02:00,
2013-02-07 22:07:00,43.6,38.7,30.00,SW,225,0.0,0.2,83,0.00,,,0.00,WUHU216HW,2013-02-08 06:07:00,
2013-02-07 22:12:00,43.7,39.3,29.99,West,270,0.4,1.1,84,0.02,,,0.01,WUHU216HW,2013-02-08 06:12:00,
2013-02-07 22:17:00,43.7,39.3,29.98,WSW,248,0.0,1.1,84,0.02,,,0.02,WUHU216HW,2013-02-08 06:17:00,
2013-02-07 22:22:00,43.9,39.4,29.99,WSW,248,0.0,0.2,84,0.02,,,0.02,WUHU216HW,2013-02-08 06:22:00,
2013-02-07 22:27:00,43.9,39.7,29.99,WSW,248,0.0,0.0,85,0.02,,,0.02,WUHU216HW,2013-02-08 06:27:00,
2013-02-07 22:32:00,43.7,39.5,29.99,SSW,203,0.4,1.6,85,0.02,,,0.02,WUHU216HW,2013-02-08 06:32:00,
2013-02-07 22:37:00,43.6,39.6,29.99,WSW,248,0.4,1.6,86,0.03,,,0.03,WUHU216HW,2013-02-08 06:37:00,
2013-02-07 22:42:00,43.4,39.2,29.99,SSW,203,0.0,0.9,85,0.03,,,0.03,WUHU216HW,2013-02-08 06:42:00,
2013-02-07 22:47:00,43.4,39.2,29.98,SSE,158,0.4,0.4,85,0.03,,,0.03,WUHU216HW,2013-02-08 06:47:00,
2013-02-07 22:52:00,43.4,39.2,29.99,SSE,158,0.0,0.4,85,0.03,,,0.03,WUHU216HW,2013-02-08 06:52:00,
2013-02-07 22:57:00,43.4,39.2,29.98,SSE,158,0.0,0.4,85,0.03,,,0.03,WUHU216HW,2013-02-08 06:57:00,
2013-02-07 23:02:00,43.2,39.2,29.99,South,180,0.0,0.4,86,0.03,,,0.03,WUHU216HW,2013-02-08 07:02:00,
2013-02-07 23:08:00,43.2,39.0,29.98,SSW,203,0.4,0.4,85,0.01,,,0.03,WUHU216HW,2013-02-08 07:08:00,
2013-02-07 23:13:00,43.2,39.0,29.99,SSW,203,0.0,0.4,85,0.01,,,0.03,WUHU216HW,2013-02-08 07:13:00,
2013-02-07 23:18:00,43.2,39.2,29.97,SSW,203,0.0,0.0,86,0.01,,,0.03,WUHU216HW,2013-02-08 07:18:00,
2013-02-07 23:23:00,43.2,39.0,29.98,WSW,248,0.0,0.4,85,0.04,,,0.05,WUHU216HW,2013-02-08 07:23:00,
2013-02-07 23:28:00,43.0,39.1,29.97,SSE,158,1.6,3.1,86,0.07,,,0.08,WUHU216HW,2013-02-08 07:28:00,
2013-02-07 23:33:00,42.7,38.4,29.97,SSE,158,0.9,3.1,85,0.08,,,0.11,WUHU216HW,2013-02-08 07:33:00,
2013-02-07 23:38:00,42.5,38.3,29.96,SSE,158,0.4,1.8,85,0.09,,,0.11,WUHU216HW,2013-02-08 07:38:00,
2013-02-07 23:43:00,42.7,38.4,29.97,SSW,203,0.4,1.1,85,0.09,,,0.12,WUHU216HW,2013-02-08 07:43:00,
2013-02-07 23:48:00,42.7,38.4,29.96,SSE,158,0.9,0.9,85,0.09,,,0.12,WUHU216HW,2013-02-08 07:48:00,
2013-02-07 23:53:00,42.7,38.4,29.96,SW,225,1.1,1.1,85,0.09,,,0.12,WUHU216HW,2013-02-08 07:53:00,
2013-02-07 23:58:00,42.7,38.4,29.96,SE,135,0.2,1.1,85,0.10,,,0.13,WUHU216HW,2013-02-08 07:58:00,